createdAt,value
2023-01-11T11:12:45.923Z,500.00
2023-01-11T11:13:45.207Z,500.00
2023-01-11T11:14:46.426Z,500.00
2023-01-11T11:15:44.955Z,500.00
2023-01-11T11:16:44.905Z,500.00
2023-01-11T11:17:44.723Z,469.00
2023-01-11T11:18:44.568Z,429.00
2023-01-11T11:19:44.380Z,404.00
2023-01-11T11:20:44.327Z,410.00
2023-01-11T11:21:44.202Z,430.00
2023-01-11T11:22:44.108Z,442.00
2023-01-11T11:23:43.746Z,486.00
2023-01-11T11:24:43.551Z,500.00
2023-01-11T11:25:43.553Z,526.00
2023-01-11T11:26:43.215Z,522.00
2023-01-11T11:27:43.028Z,502.00
2023-01-11T11:28:42.846Z,511.00
2023-01-11T11:29:42.693Z,511.00
2023-01-11T11:30:42.531Z,502.00
2023-01-11T11:31:42.879Z,500.00
2023-01-11T11:32:42.164Z,510.00
2023-01-11T11:33:41.969Z,525.00
2023-01-11T11:34:41.786Z,504.00
2023-01-11T11:35:41.604Z,500.00
2023-01-11T11:36:41.425Z,507.00
2023-01-11T11:37:41.217Z,506.00
2023-01-11T11:38:41.046Z,501.00
2023-01-11T11:39:40.903Z,508.00
2023-01-11T11:40:40.683Z,511.00
2023-01-11T11:41:40.515Z,522.00
2023-01-11T11:42:40.316Z,520.00
2023-01-11T11:43:40.171Z,504.00
2023-01-11T11:44:40.943Z,530.00
2023-01-11T11:45:39.866Z,500.00
2023-01-11T11:46:39.650Z,521.00
2023-01-11T11:47:39.431Z,504.00
2023-01-11T11:48:39.229Z,511.00
2023-01-11T11:49:39.030Z,504.00
2023-01-11T11:50:45.907Z,508.00
2023-01-11T11:51:39.773Z,509.00
2023-01-11T11:52:38.569Z,510.00
2023-01-11T11:53:38.369Z,511.00
2023-01-11T11:54:52.003Z,518.00
